Terminal Aerodrome Forecast
Issued by NWS

Home | Current Version | Previous Version | Text Only | Print | Product List | Glossary On
Versions: 1 2 3 4 5 6 7 8 9 10 11 12 13 14 15 16 17 18 19 20 21 22 23 24 25 26
000
FTUS43 KILX 200853 AAA
TAFBMI
TAF AMD
KBMI 200853Z 2009/2106 03010KT P6SM VCTS SCT050CB BKN100
      TEMPO 2009/2012 4SM TSRA OVC035CB
     FM201200 VRB04KT P6SM BKN100
     FM201600 15006KT P6SM VCSH SCT060
     FM201900 18009KT P6SM SCT070=

USA.gov is the U.S. government's official web portal to all federal, state and local government web resources and services.